sensor_id;sensor_type;location;lat;lon;timestamp;P1;durP1;ratioP1;P2;durP2;ratioP2
11539;SDS011;5826;54.756;9.192;2024-01-16T00:01:19;3.57;;;2.70;;
11539;SDS011;5826;54.756;9.192;2024-01-16T00:03:45;3.07;;;2.50;;
11539;SDS011;5826;54.756;9.192;2024-01-16T00:06:10;5.57;;;2.50;;
11539;SDS011;5826;54.756;9.192;2024-01-16T00:08:36;3.63;;;2.43;;
11539;SDS011;5826;54.756;9.192;2024-01-16T00:11:02;2.97;;;2.50;;
11539;SDS011;5826;54.756;9.192;2024-01-16T00:13:28;3.37;;;2.60;;
11539;SDS011;5826;54.756;9.192;2024-01-16T00:15:53;3.37;;;2.73;;
11539;SDS011;5826;54.756;9.192;2024-01-16T00:18:19;4.20;;;2.83;;
11539;SDS011;5826;54.756;9.192;2024-01-16T00:20:44;5.17;;;2.97;;
11539;SDS011;5826;54.756;9.192;2024-01-16T00:23:10;3.40;;;2.60;;
11539;SDS011;5826;54.756;9.192;2024-01-16T00:25:35;5.70;;;2.97;;
11539;SDS011;5826;54.756;9.192;2024-01-16T00:28:01;4.63;;;2.83;;
11539;SDS011;5826;54.756;9.192;2024-01-16T00:30:27;2.97;;;2.43;;
11539;SDS011;5826;54.756;9.192;2024-01-16T00:32:52;4.07;;;2.57;;
11539;SDS011;5826;54.756;9.192;2024-01-16T00:35:18;3.23;;;2.23;;
11539;SDS011;5826;54.756;9.192;2024-01-16T00:37:44;2.90;;;2.37;;
11539;SDS011;5826;54.756;9.192;2024-01-16T00:40:09;3.40;;;2.47;;
11539;SDS011;5826;54.756;9.192;2024-01-16T00:42:35;2.70;;;2.00;;
11539;SDS011;5826;54.756;9.192;2024-01-16T00:45:01;3.90;;;2.13;;
11539;SDS011;5826;54.756;9.192;2024-01-16T00:47:26;2.50;;;2.13;;
11539;SDS011;5826;54.756;9.192;2024-01-16T00:49:52;2.67;;;2.00;;
11539;SDS011;5826;54.756;9.192;2024-01-16T00:52:17;3.17;;;2.07;;
11539;SDS011;5826;54.756;9.192;2024-01-16T00:54:44;3.03;;;2.03;;
11539;SDS011;5826;54.756;9.192;2024-01-16T00:57:09;2.10;;;1.77;;
11539;SDS011;5826;54.756;9.192;2024-01-16T00:59:35;2.20;;;1.77;;
11539;SDS011;5826;54.756;9.192;2024-01-16T01:02:02;3.03;;;2.10;;
11539;SDS011;5826;54.756;9.192;2024-01-16T01:04:28;3.60;;;2.43;;
11539;SDS011;5826;54.756;9.192;2024-01-16T01:06:54;3.53;;;2.23;;
11539;SDS011;5826;54.756;9.192;2024-01-16T01:09:19;4.63;;;2.30;;
11539;SDS011;5826;54.756;9.192;2024-01-16T01:11:45;3.23;;;2.20;;
11539;SDS011;5826;54.756;9.192;2024-01-16T01:14:10;2.80;;;2.00;;
11539;SDS011;5826;54.756;9.192;2024-01-16T01:16:36;3.90;;;2.43;;
11539;SDS011;5826;54.756;9.192;2024-01-16T01:19:01;3.30;;;2.20;;
11539;SDS011;5826;54.756;9.192;2024-01-16T01:21:28;6.90;;;2.90;;
11539;SDS011;5826;54.756;9.192;2024-01-16T01:23:53;3.83;;;2.70;;
11539;SDS011;5826;54.756;9.192;2024-01-16T01:26:19;3.23;;;2.60;;
11539;SDS011;5826;54.756;9.192;2024-01-16T01:28:44;4.33;;;2.57;;
11539;SDS011;5826;54.756;9.192;2024-01-16T01:31:10;4.77;;;2.93;;
11539;SDS011;5826;54.756;9.192;2024-01-16T01:33:36;4.43;;;2.83;;
11539;SDS011;5826;54.756;9.192;2024-01-16T01:36:01;4.03;;;2.60;;
11539;SDS011;5826;54.756;9.192;2024-01-16T01:38:27;4.57;;;2.90;;
11539;SDS011;5826;54.756;9.192;2024-01-16T01:40:53;4.10;;;2.63;;
11539;SDS011;5826;54.756;9.192;2024-01-16T01:43:22;2.80;;;2.13;;
11539;SDS011;5826;54.756;9.192;2024-01-16T01:46:13;3.97;;;2.50;;
11539;SDS011;5826;54.756;9.192;2024-01-16T01:48:43;4.60;;;2.73;;
11539;SDS011;5826;54.756;9.192;2024-01-16T01:51:10;3.97;;;2.97;;
11539;SDS011;5826;54.756;9.192;2024-01-16T01:53:38;3.47;;;2.40;;
11539;SDS011;5826;54.756;9.192;2024-01-16T01:56:04;3.03;;;2.40;;
11539;SDS011;5826;54.756;9.192;2024-01-16T01:58:34;3.40;;;2.20;;
11539;SDS011;5826;54.756;9.192;2024-01-16T02:01:01;3.90;;;3.00;;
11539;SDS011;5826;54.756;9.192;2024-01-16T02:03:28;3.77;;;2.90;;
11539;SDS011;5826;54.756;9.192;2024-01-16T02:05:57;4.20;;;2.47;;
11539;SDS011;5826;54.756;9.192;2024-01-16T02:08:24;3.20;;;2.60;;
11539;SDS011;5826;54.756;9.192;2024-01-16T02:10:49;3.83;;;2.70;;
11539;SDS011;5826;54.756;9.192;2024-01-16T02:13:15;2.80;;;2.50;;
11539;SDS011;5826;54.756;9.192;2024-01-16T02:15:45;3.07;;;2.70;;
11539;SDS011;5826;54.756;9.192;2024-01-16T02:18:11;3.83;;;2.70;;
11539;SDS011;5826;54.756;9.192;2024-01-16T02:20:36;4.30;;;3.00;;
11539;SDS011;5826;54.756;9.192;2024-01-16T02:23:03;3.87;;;2.47;;
11539;SDS011;5826;54.756;9.192;2024-01-16T02:25:29;3.10;;;2.40;;
11539;SDS011;5826;54.756;9.192;2024-01-16T02:27:55;2.80;;;2.23;;
11539;SDS011;5826;54.756;9.192;2024-01-16T02:30:21;2.90;;;2.10;;
11539;SDS011;5826;54.756;9.192;2024-01-16T02:32:46;2.90;;;2.40;;
11539;SDS011;5826;54.756;9.192;2024-01-16T02:35:12;2.50;;;1.90;;
11539;SDS011;5826;54.756;9.192;2024-01-16T02:37:38;2.20;;;1.80;;
11539;SDS011;5826;54.756;9.192;2024-01-16T02:40:03;2.00;;;1.80;;
11539;SDS011;5826;54.756;9.192;2024-01-16T02:42:31;2.07;;;1.77;;
11539;SDS011;5826;54.756;9.192;2024-01-16T02:44:57;1.97;;;1.77;;
11539;SDS011;5826;54.756;9.192;2024-01-16T02:47:23;2.17;;;1.97;;
11539;SDS011;5826;54.756;9.192;2024-01-16T02:49:48;2.40;;;1.80;;
11539;SDS011;5826;54.756;9.192;2024-01-16T02:52:14;3.17;;;1.87;;
11539;SDS011;5826;54.756;9.192;2024-01-16T02:54:40;2.43;;;2.00;;
11539;SDS011;5826;54.756;9.192;2024-01-16T02:57:05;2.57;;;2.03;;
11539;SDS011;5826;54.756;9.192;2024-01-16T02:59:30;2.67;;;1.90;;
11539;SDS011;5826;54.756;9.192;2024-01-16T03:01:56;3.77;;;2.10;;
11539;SDS011;5826;54.756;9.192;2024-01-16T03:04:22;2.90;;;2.17;;
11539;SDS011;5826;54.756;9.192;2024-01-16T03:06:47;2.37;;;1.90;;
11539;SDS011;5826;54.756;9.192;2024-01-16T03:09:13;3.57;;;2.10;;
11539;SDS011;5826;54.756;9.192;2024-01-16T03:11:38;2.57;;;2.10;;
11539;SDS011;5826;54.756;9.192;2024-01-16T03:14:04;2.83;;;2.03;;
11539;SDS011;5826;54.756;9.192;2024-01-16T03:16:30;2.47;;;1.97;;
11539;SDS011;5826;54.756;9.192;2024-01-16T03:18:56;2.23;;;1.90;;
11539;SDS011;5826;54.756;9.192;2024-01-16T03:21:22;2.30;;;2.10;;
11539;SDS011;5826;54.756;9.192;2024-01-16T03:23:48;2.97;;;1.90;;
11539;SDS011;5826;54.756;9.192;2024-01-16T03:26:13;4.47;;;1.83;;
11539;SDS011;5826;54.756;9.192;2024-01-16T03:28:39;1.87;;;1.57;;
11539;SDS011;5826;54.756;9.192;2024-01-16T03:31:05;4.47;;;2.13;;
11539;SDS011;5826;54.756;9.192;2024-01-16T03:33:31;2.43;;;1.80;;
11539;SDS011;5826;54.756;9.192;2024-01-16T03:35:56;3.93;;;2.07;;
11539;SDS011;5826;54.756;9.192;2024-01-16T03:38:22;3.70;;;2.50;;
11539;SDS011;5826;54.756;9.192;2024-01-16T03:40:47;2.87;;;2.20;;
11539;SDS011;5826;54.756;9.192;2024-01-16T03:43:13;3.23;;;2.07;;
11539;SDS011;5826;54.756;9.192;2024-01-16T03:45:38;3.13;;;2.40;;
11539;SDS011;5826;54.756;9.192;2024-01-16T03:48:04;3.00;;;2.10;;
11539;SDS011;5826;54.756;9.192;2024-01-16T03:50:30;4.77;;;2.50;;
11539;SDS011;5826;54.756;9.192;2024-01-16T03:52:55;5.13;;;2.67;;
11539;SDS011;5826;54.756;9.192;2024-01-16T03:55:21;4.13;;;2.67;;
11539;SDS011;5826;54.756;9.192;2024-01-16T03:57:46;4.53;;;2.60;;
11539;SDS011;5826;54.756;9.192;2024-01-16T04:00:12;5.17;;;2.77;;
11539;SDS011;5826;54.756;9.192;2024-01-16T04:02:38;3.80;;;2.80;;
11539;SDS011;5826;54.756;9.192;2024-01-16T04:05:04;3.77;;;2.43;;
11539;SDS011;5826;54.756;9.192;2024-01-16T04:07:30;4.00;;;2.73;;
11539;SDS011;5826;54.756;9.192;2024-01-16T04:09:56;5.67;;;3.07;;
11539;SDS011;5826;54.756;9.192;2024-01-16T04:12:21;3.50;;;2.63;;
11539;SDS011;5826;54.756;9.192;2024-01-16T04:14:47;4.00;;;2.60;;
11539;SDS011;5826;54.756;9.192;2024-01-16T04:17:12;5.67;;;2.40;;
11539;SDS011;5826;54.756;9.192;2024-01-16T04:19:38;3.30;;;2.97;;
11539;SDS011;5826;54.756;9.192;2024-01-16T04:22:04;4.17;;;2.50;;
11539;SDS011;5826;54.756;9.192;2024-01-16T04:24:30;3.33;;;2.50;;
11539;SDS011;5826;54.756;9.192;2024-01-16T04:26:55;3.90;;;2.60;;
11539;SDS011;5826;54.756;9.192;2024-01-16T04:29:21;4.00;;;2.60;;
11539;SDS011;5826;54.756;9.192;2024-01-16T04:31:46;3.77;;;3.00;;
11539;SDS011;5826;54.756;9.192;2024-01-16T04:34:12;5.57;;;2.97;;
11539;SDS011;5826;54.756;9.192;2024-01-16T04:36:38;4.20;;;2.80;;
11539;SDS011;5826;54.756;9.192;2024-01-16T04:39:03;4.43;;;2.87;;
11539;SDS011;5826;54.756;9.192;2024-01-16T04:41:29;5.33;;;3.20;;
11539;SDS011;5826;54.756;9.192;2024-01-16T04:43:54;4.80;;;3.00;;
11539;SDS011;5826;54.756;9.192;2024-01-16T04:46:20;5.33;;;3.07;;
11539;SDS011;5826;54.756;9.192;2024-01-16T04:48:45;4.80;;;2.87;;
11539;SDS011;5826;54.756;9.192;2024-01-16T04:51:11;4.23;;;3.00;;
11539;SDS011;5826;54.756;9.192;2024-01-16T04:53:36;4.47;;;3.03;;
11539;SDS011;5826;54.756;9.192;2024-01-16T04:56:02;3.93;;;2.83;;
11539;SDS011;5826;54.756;9.192;2024-01-16T04:58:28;4.90;;;2.90;;
11539;SDS011;5826;54.756;9.192;2024-01-16T05:00:53;4.20;;;2.97;;
11539;SDS011;5826;54.756;9.192;2024-01-16T05:03:19;4.00;;;3.17;;
11539;SDS011;5826;54.756;9.192;2024-01-16T05:05:44;4.77;;;2.60;;
11539;SDS011;5826;54.756;9.192;2024-01-16T05:08:10;4.00;;;2.80;;
11539;SDS011;5826;54.756;9.192;2024-01-16T05:10:35;4.47;;;3.00;;
11539;SDS011;5826;54.756;9.192;2024-01-16T05:13:01;4.73;;;3.07;;
11539;SDS011;5826;54.756;9.192;2024-01-16T05:15:26;5.47;;;2.97;;
11539;SDS011;5826;54.756;9.192;2024-01-16T05:17:52;3.67;;;2.90;;
11539;SDS011;5826;54.756;9.192;2024-01-16T05:20:18;4.43;;;3.13;;
11539;SDS011;5826;54.756;9.192;2024-01-16T05:22:44;5.87;;;3.23;;
11539;SDS011;5826;54.756;9.192;2024-01-16T05:25:10;3.97;;;3.07;;
11539;SDS011;5826;54.756;9.192;2024-01-16T05:27:35;7.77;;;4.27;;
11539;SDS011;5826;54.756;9.192;2024-01-16T05:30:01;8.27;;;5.20;;
11539;SDS011;5826;54.756;9.192;2024-01-16T05:32:26;7.90;;;4.27;;
11539;SDS011;5826;54.756;9.192;2024-01-16T05:34:52;7.17;;;4.33;;
11539;SDS011;5826;54.756;9.192;2024-01-16T05:37:18;6.23;;;4.17;;
11539;SDS011;5826;54.756;9.192;2024-01-16T05:39:44;5.40;;;3.97;;
11539;SDS011;5826;54.756;9.192;2024-01-16T05:42:10;8.07;;;4.57;;
11539;SDS011;5826;54.756;9.192;2024-01-16T05:44:36;4.37;;;3.70;;
11539;SDS011;5826;54.756;9.192;2024-01-16T05:47:02;4.83;;;2.93;;
11539;SDS011;5826;54.756;9.192;2024-01-16T05:49:28;4.10;;;3.13;;
11539;SDS011;5826;54.756;9.192;2024-01-16T05:51:54;5.83;;;3.70;;
11539;SDS011;5826;54.756;9.192;2024-01-16T05:54:19;6.33;;;3.80;;
11539;SDS011;5826;54.756;9.192;2024-01-16T05:56:45;4.07;;;3.20;;
11539;SDS011;5826;54.756;9.192;2024-01-16T05:59:10;6.77;;;3.37;;
11539;SDS011;5826;54.756;9.192;2024-01-16T06:01:36;4.20;;;3.27;;
11539;SDS011;5826;54.756;9.192;2024-01-16T06:04:02;5.97;;;4.20;;
11539;SDS011;5826;54.756;9.192;2024-01-16T06:06:28;5.37;;;3.70;;
11539;SDS011;5826;54.756;9.192;2024-01-16T06:08:54;6.77;;;3.53;;
11539;SDS011;5826;54.756;9.192;2024-01-16T06:11:29;7.00;;;3.73;;
11539;SDS011;5826;54.756;9.192;2024-01-16T06:13:55;5.63;;;4.23;;
11539;SDS011;5826;54.756;9.192;2024-01-16T06:16:21;5.30;;;2.93;;
11539;SDS011;5826;54.756;9.192;2024-01-16T06:18:46;7.87;;;4.43;;
11539;SDS011;5826;54.756;9.192;2024-01-16T06:21:12;5.60;;;4.03;;
11539;SDS011;5826;54.756;9.192;2024-01-16T06:23:38;6.07;;;4.40;;
11539;SDS011;5826;54.756;9.192;2024-01-16T06:26:03;5.53;;;4.00;;
11539;SDS011;5826;54.756;9.192;2024-01-16T06:28:29;6.33;;;4.30;;
11539;SDS011;5826;54.756;9.192;2024-01-16T06:30:54;4.93;;;3.70;;
11539;SDS011;5826;54.756;9.192;2024-01-16T06:33:19;8.17;;;4.60;;
11539;SDS011;5826;54.756;9.192;2024-01-16T06:35:45;8.13;;;4.77;;
11539;SDS011;5826;54.756;9.192;2024-01-16T06:38:10;7.27;;;5.03;;
11539;SDS011;5826;54.756;9.192;2024-01-16T06:40:36;6.53;;;4.57;;
11539;SDS011;5826;54.756;9.192;2024-01-16T06:43:02;7.10;;;5.40;;
11539;SDS011;5826;54.756;9.192;2024-01-16T06:45:28;8.03;;;5.23;;
11539;SDS011;5826;54.756;9.192;2024-01-16T06:47:53;7.60;;;4.93;;
11539;SDS011;5826;54.756;9.192;2024-01-16T06:50:19;7.07;;;4.83;;
11539;SDS011;5826;54.756;9.192;2024-01-16T06:52:44;7.43;;;5.50;;
11539;SDS011;5826;54.756;9.192;2024-01-16T06:55:10;7.10;;;4.90;;
11539;SDS011;5826;54.756;9.192;2024-01-16T06:57:36;8.43;;;4.67;;
11539;SDS011;5826;54.756;9.192;2024-01-16T07:00:01;8.27;;;5.60;;
11539;SDS011;5826;54.756;9.192;2024-01-16T07:02:27;7.27;;;4.80;;
11539;SDS011;5826;54.756;9.192;2024-01-16T07:04:52;7.70;;;5.10;;
11539;SDS011;5826;54.756;9.192;2024-01-16T07:07:18;7.57;;;5.50;;
11539;SDS011;5826;54.756;9.192;2024-01-16T07:09:43;8.77;;;6.00;;
11539;SDS011;5826;54.756;9.192;2024-01-16T07:12:10;8.43;;;6.00;;
11539;SDS011;5826;54.756;9.192;2024-01-16T07:14:36;8.10;;;5.70;;
11539;SDS011;5826;54.756;9.192;2024-01-16T07:17:03;10.10;;;5.60;;
11539;SDS011;5826;54.756;9.192;2024-01-16T07:19:29;9.63;;;5.70;;
11539;SDS011;5826;54.756;9.192;2024-01-16T07:21:54;8.73;;;5.90;;
11539;SDS011;5826;54.756;9.192;2024-01-16T07:24:20;8.60;;;5.77;;
11539;SDS011;5826;54.756;9.192;2024-01-16T07:26:45;6.00;;;4.77;;
11539;SDS011;5826;54.756;9.192;2024-01-16T07:29:10;8.60;;;5.37;;
11539;SDS011;5826;54.756;9.192;2024-01-16T07:31:36;8.00;;;5.50;;
11539;SDS011;5826;54.756;9.192;2024-01-16T07:34:01;8.53;;;5.47;;
11539;SDS011;5826;54.756;9.192;2024-01-16T07:36:27;7.67;;;5.30;;
11539;SDS011;5826;54.756;9.192;2024-01-16T07:38:52;10.10;;;5.90;;
11539;SDS011;5826;54.756;9.192;2024-01-16T07:41:18;7.70;;;5.23;;
11539;SDS011;5826;54.756;9.192;2024-01-16T07:43:44;9.43;;;5.80;;
11539;SDS011;5826;54.756;9.192;2024-01-16T07:46:09;7.70;;;5.60;;
11539;SDS011;5826;54.756;9.192;2024-01-16T07:48:35;7.00;;;4.87;;
11539;SDS011;5826;54.756;9.192;2024-01-16T07:51:01;7.33;;;5.37;;
11539;SDS011;5826;54.756;9.192;2024-01-16T07:53:26;8.37;;;5.60;;
11539;SDS011;5826;54.756;9.192;2024-01-16T07:55:52;8.03;;;5.83;;
11539;SDS011;5826;54.756;9.192;2024-01-16T07:58:19;8.13;;;5.70;;
11539;SDS011;5826;54.756;9.192;2024-01-16T08:00:45;8.37;;;5.63;;
11539;SDS011;5826;54.756;9.192;2024-01-16T08:03:11;9.17;;;6.60;;
11539;SDS011;5826;54.756;9.192;2024-01-16T08:05:37;8.40;;;6.20;;
11539;SDS011;5826;54.756;9.192;2024-01-16T08:08:02;11.23;;;6.77;;
11539;SDS011;5826;54.756;9.192;2024-01-16T08:10:29;9.43;;;5.93;;
11539;SDS011;5826;54.756;9.192;2024-01-16T08:12:54;9.63;;;6.43;;
11539;SDS011;5826;54.756;9.192;2024-01-16T08:15:20;11.07;;;6.97;;
11539;SDS011;5826;54.756;9.192;2024-01-16T08:17:46;11.87;;;6.80;;
11539;SDS011;5826;54.756;9.192;2024-01-16T08:20:12;9.90;;;6.30;;
11539;SDS011;5826;54.756;9.192;2024-01-16T08:22:38;12.57;;;7.40;;
11539;SDS011;5826;54.756;9.192;2024-01-16T08:25:04;9.63;;;6.70;;
11539;SDS011;5826;54.756;9.192;2024-01-16T08:27:33;11.23;;;6.90;;
11539;SDS011;5826;54.756;9.192;2024-01-16T08:29:59;14.00;;;7.10;;
11539;SDS011;5826;54.756;9.192;2024-01-16T08:32:24;11.37;;;6.43;;
11539;SDS011;5826;54.756;9.192;2024-01-16T08:34:50;9.33;;;6.23;;
11539;SDS011;5826;54.756;9.192;2024-01-16T08:37:16;9.67;;;6.53;;
11539;SDS011;5826;54.756;9.192;2024-01-16T08:39:41;12.10;;;7.10;;
11539;SDS011;5826;54.756;9.192;2024-01-16T08:42:08;13.57;;;6.80;;
11539;SDS011;5826;54.756;9.192;2024-01-16T08:44:36;13.70;;;7.70;;
11539;SDS011;5826;54.756;9.192;2024-01-16T08:47:04;13.13;;;7.50;;
11539;SDS011;5826;54.756;9.192;2024-01-16T08:49:31;12.20;;;6.77;;
11539;SDS011;5826;54.756;9.192;2024-01-16T08:51:57;14.98;;;10.90;;
11539;SDS011;5826;54.756;9.192;2024-01-16T08:54:23;13.57;;;8.93;;
11539;SDS011;5826;54.756;9.192;2024-01-16T08:56:50;10.60;;;7.03;;
11539;SDS011;5826;54.756;9.192;2024-01-16T08:59:16;12.67;;;7.43;;
11539;SDS011;5826;54.756;9.192;2024-01-16T09:01:42;14.67;;;8.33;;
11539;SDS011;5826;54.756;9.192;2024-01-16T09:04:07;14.43;;;7.80;;
11539;SDS011;5826;54.756;9.192;2024-01-16T09:06:33;11.77;;;6.30;;
11539;SDS011;5826;54.756;9.192;2024-01-16T09:08:58;9.97;;;6.17;;
11539;SDS011;5826;54.756;9.192;2024-01-16T09:11:24;13.53;;;7.67;;
11539;SDS011;5826;54.756;9.192;2024-01-16T09:13:49;11.27;;;6.70;;
11539;SDS011;5826;54.756;9.192;2024-01-16T09:16:15;11.93;;;7.17;;
11539;SDS011;5826;54.756;9.192;2024-01-16T09:18:40;12.47;;;7.17;;
11539;SDS011;5826;54.756;9.192;2024-01-16T09:21:06;12.90;;;7.30;;
11539;SDS011;5826;54.756;9.192;2024-01-16T09:23:31;16.30;;;9.13;;
11539;SDS011;5826;54.756;9.192;2024-01-16T09:25:57;18.27;;;8.50;;
11539;SDS011;5826;54.756;9.192;2024-01-16T09:28:22;17.37;;;7.93;;
11539;SDS011;5826;54.756;9.192;2024-01-16T09:30:49;15.50;;;9.03;;
11539;SDS011;5826;54.756;9.192;2024-01-16T09:33:14;16.93;;;9.20;;
11539;SDS011;5826;54.756;9.192;2024-01-16T09:35:41;13.97;;;8.37;;
11539;SDS011;5826;54.756;9.192;2024-01-16T09:38:07;16.10;;;9.57;;
11539;SDS011;5826;54.756;9.192;2024-01-16T09:40:33;13.98;;;10.00;;
11539;SDS011;5826;54.756;9.192;2024-01-16T09:43:00;12.70;;;8.27;;
11539;SDS011;5826;54.756;9.192;2024-01-16T09:45:26;17.30;;;8.63;;
11539;SDS011;5826;54.756;9.192;2024-01-16T09:47:54;14.23;;;7.97;;
11539;SDS011;5826;54.756;9.192;2024-01-16T09:50:20;13.67;;;7.00;;
11539;SDS011;5826;54.756;9.192;2024-01-16T09:52:46;14.43;;;7.43;;
11539;SDS011;5826;54.756;9.192;2024-01-16T09:55:15;10.43;;;6.03;;
11539;SDS011;5826;54.756;9.192;2024-01-16T09:57:41;10.27;;;5.90;;
11539;SDS011;5826;54.756;9.192;2024-01-16T10:00:10;14.67;;;6.60;;
11539;SDS011;5826;54.756;9.192;2024-01-16T10:02:40;12.82;;;9.43;;
11539;SDS011;5826;54.756;9.192;2024-01-16T10:05:07;8.93;;;6.67;;
11539;SDS011;5826;54.756;9.192;2024-01-16T10:07:35;7.63;;;5.30;;
11539;SDS011;5826;54.756;9.192;2024-01-16T10:10:03;7.83;;;4.73;;
11539;SDS011;5826;54.756;9.192;2024-01-16T10:12:29;7.00;;;4.00;;
11539;SDS011;5826;54.756;9.192;2024-01-16T10:14:55;5.53;;;3.70;;
11539;SDS011;5826;54.756;9.192;2024-01-16T10:17:21;5.37;;;3.70;;
11539;SDS011;5826;54.756;9.192;2024-01-16T10:19:48;5.80;;;3.80;;
11539;SDS011;5826;54.756;9.192;2024-01-16T10:22:19;6.87;;;3.97;;
11539;SDS011;5826;54.756;9.192;2024-01-16T10:24:46;6.57;;;4.07;;
11539;SDS011;5826;54.756;9.192;2024-01-16T10:27:11;6.87;;;4.70;;
11539;SDS011;5826;54.756;9.192;2024-01-16T10:29:54;9.20;;;4.73;;
11539;SDS011;5826;54.756;9.192;2024-01-16T10:32:28;11.13;;;5.97;;
11539;SDS011;5826;54.756;9.192;2024-01-16T10:37:51;6.17;;;4.00;;
11539;SDS011;5826;54.756;9.192;2024-01-16T10:40:18;7.60;;;5.17;;
11539;SDS011;5826;54.756;9.192;2024-01-16T10:42:56;7.75;;;6.07;;
11539;SDS011;5826;54.756;9.192;2024-01-16T10:45:24;8.35;;;6.53;;
11539;SDS011;5826;54.756;9.192;2024-01-16T10:48:09;6.00;;;5.38;;
11539;SDS011;5826;54.756;9.192;2024-01-16T10:50:36;6.43;;;4.67;;
11539;SDS011;5826;54.756;9.192;2024-01-16T10:53:06;5.17;;;4.13;;
11539;SDS011;5826;54.756;9.192;2024-01-16T10:55:53;5.23;;;3.77;;
11539;SDS011;5826;54.756;9.192;2024-01-16T10:58:21;5.57;;;3.20;;
11539;SDS011;5826;54.756;9.192;2024-01-16T11:00:51;5.83;;;3.50;;
11539;SDS011;5826;54.756;9.192;2024-01-16T11:06:02;5.83;;;4.17;;
11539;SDS011;5826;54.756;9.192;2024-01-16T11:08:33;7.90;;;4.73;;
11539;SDS011;5826;54.756;9.192;2024-01-16T11:11:01;6.68;;;5.38;;
11539;SDS011;5826;54.756;9.192;2024-01-16T11:13:28;5.77;;;4.20;;
11539;SDS011;5826;54.756;9.192;2024-01-16T11:15:56;4.43;;;3.60;;
11539;SDS011;5826;54.756;9.192;2024-01-16T11:18:24;4.67;;;3.07;;
11539;SDS011;5826;54.756;9.192;2024-01-16T11:20:51;3.93;;;3.00;;
11539;SDS011;5826;54.756;9.192;2024-01-16T11:23:17;5.73;;;3.17;;
11539;SDS011;5826;54.756;9.192;2024-01-16T11:25:42;6.97;;;3.57;;
11539;SDS011;5826;54.756;9.192;2024-01-16T11:28:08;6.17;;;3.43;;
11539;SDS011;5826;54.756;9.192;2024-01-16T11:30:36;3.90;;;3.03;;
11539;SDS011;5826;54.756;9.192;2024-01-16T11:33:02;5.93;;;3.30;;
11539;SDS011;5826;54.756;9.192;2024-01-16T11:35:33;5.33;;;3.40;;
11539;SDS011;5826;54.756;9.192;2024-01-16T11:40:33;4.63;;;2.80;;
11539;SDS011;5826;54.756;9.192;2024-01-16T11:43:00;7.33;;;3.57;;
11539;SDS011;5826;54.756;9.192;2024-01-16T11:45:57;5.55;;;3.70;;
11539;SDS011;5826;54.756;9.192;2024-01-16T11:48:23;8.27;;;4.57;;
11539;SDS011;5826;54.756;9.192;2024-01-16T11:50:49;5.65;;;4.82;;
11539;SDS011;5826;54.756;9.192;2024-01-16T11:53:34;6.10;;;4.10;;
11539;SDS011;5826;54.756;9.192;2024-01-16T12:01:38;4.07;;;2.63;;
11539;SDS011;5826;54.756;9.192;2024-01-16T12:04:07;4.07;;;3.17;;
11539;SDS011;5826;54.756;9.192;2024-01-16T12:06:34;5.87;;;3.90;;
11539;SDS011;5826;54.756;9.192;2024-01-16T12:09:13;5.80;;;3.70;;
11539;SDS011;5826;54.756;9.192;2024-01-16T12:11:40;6.00;;;3.80;;
11539;SDS011;5826;54.756;9.192;2024-01-16T12:14:09;7.27;;;4.40;;
11539;SDS011;5826;54.756;9.192;2024-01-16T12:16:35;5.27;;;4.20;;
11539;SDS011;5826;54.756;9.192;2024-01-16T12:19:10;6.47;;;3.80;;
11539;SDS011;5826;54.756;9.192;2024-01-16T12:21:39;5.37;;;3.80;;
11539;SDS011;5826;54.756;9.192;2024-01-16T12:24:07;4.27;;;3.07;;
11539;SDS011;5826;54.756;9.192;2024-01-16T12:26:32;5.50;;;4.13;;
11539;SDS011;5826;54.756;9.192;2024-01-16T12:28:58;7.63;;;3.70;;
11539;SDS011;5826;54.756;9.192;2024-01-16T12:31:24;7.10;;;4.17;;
11539;SDS011;5826;54.756;9.192;2024-01-16T12:33:50;7.73;;;4.77;;
11539;SDS011;5826;54.756;9.192;2024-01-16T12:36:16;6.00;;;3.97;;
11539;SDS011;5826;54.756;9.192;2024-01-16T12:38:42;9.27;;;5.03;;
11539;SDS011;5826;54.756;9.192;2024-01-16T12:41:09;7.63;;;5.00;;
11539;SDS011;5826;54.756;9.192;2024-01-16T12:43:37;7.50;;;4.77;;
11539;SDS011;5826;54.756;9.192;2024-01-16T12:46:02;8.00;;;4.80;;
11539;SDS011;5826;54.756;9.192;2024-01-16T12:48:28;7.53;;;4.80;;
11539;SDS011;5826;54.756;9.192;2024-01-16T12:51:03;8.20;;;5.03;;
11539;SDS011;5826;54.756;9.192;2024-01-16T12:53:31;9.03;;;6.27;;
11539;SDS011;5826;54.756;9.192;2024-01-16T12:55:58;8.00;;;5.40;;
11539;SDS011;5826;54.756;9.192;2024-01-16T12:58:25;8.47;;;5.23;;
11539;SDS011;5826;54.756;9.192;2024-01-16T13:00:56;7.07;;;4.40;;
11539;SDS011;5826;54.756;9.192;2024-01-16T13:03:23;7.00;;;5.07;;
11539;SDS011;5826;54.756;9.192;2024-01-16T13:05:57;8.77;;;5.23;;
11539;SDS011;5826;54.756;9.192;2024-01-16T13:08:24;9.33;;;5.10;;
11539;SDS011;5826;54.756;9.192;2024-01-16T13:13:33;7.10;;;4.90;;
11539;SDS011;5826;54.756;9.192;2024-01-16T13:16:01;6.57;;;4.53;;
11539;SDS011;5826;54.756;9.192;2024-01-16T13:18:28;9.60;;;6.90;;
11539;SDS011;5826;54.756;9.192;2024-01-16T13:20:58;9.80;;;6.23;;
11539;SDS011;5826;54.756;9.192;2024-01-16T13:23:24;8.27;;;7.00;;
11539;SDS011;5826;54.756;9.192;2024-01-16T13:25:51;8.33;;;5.50;;
11539;SDS011;5826;54.756;9.192;2024-01-16T13:28:18;9.77;;;5.17;;
11539;SDS011;5826;54.756;9.192;2024-01-16T13:30:45;6.37;;;4.10;;
11539;SDS011;5826;54.756;9.192;2024-01-16T13:33:12;6.87;;;4.23;;
11539;SDS011;5826;54.756;9.192;2024-01-16T13:35:39;6.67;;;4.10;;
11539;SDS011;5826;54.756;9.192;2024-01-16T13:38:06;6.07;;;4.17;;
11539;SDS011;5826;54.756;9.192;2024-01-16T13:40:33;6.90;;;4.20;;
11539;SDS011;5826;54.756;9.192;2024-01-16T13:43:00;6.80;;;4.07;;
11539;SDS011;5826;54.756;9.192;2024-01-16T13:45:28;6.27;;;3.97;;
11539;SDS011;5826;54.756;9.192;2024-01-16T13:47:55;6.97;;;4.20;;
11539;SDS011;5826;54.756;9.192;2024-01-16T13:50:21;5.73;;;4.00;;
11539;SDS011;5826;54.756;9.192;2024-01-16T13:52:46;6.93;;;4.47;;
11539;SDS011;5826;54.756;9.192;2024-01-16T13:55:12;7.60;;;4.67;;
11539;SDS011;5826;54.756;9.192;2024-01-16T13:57:38;6.73;;;4.37;;
11539;SDS011;5826;54.756;9.192;2024-01-16T14:00:04;8.07;;;6.43;;
11539;SDS011;5826;54.756;9.192;2024-01-16T14:02:31;6.93;;;4.67;;
11539;SDS011;5826;54.756;9.192;2024-01-16T14:04:59;7.17;;;4.50;;
11539;SDS011;5826;54.756;9.192;2024-01-16T14:07:25;5.93;;;3.83;;
11539;SDS011;5826;54.756;9.192;2024-01-16T14:09:50;4.70;;;3.70;;
11539;SDS011;5826;54.756;9.192;2024-01-16T14:12:16;6.53;;;4.10;;
11539;SDS011;5826;54.756;9.192;2024-01-16T14:14:43;4.27;;;2.87;;
11539;SDS011;5826;54.756;9.192;2024-01-16T14:17:09;4.97;;;3.33;;
11539;SDS011;5826;54.756;9.192;2024-01-16T14:19:35;4.97;;;3.10;;
11539;SDS011;5826;54.756;9.192;2024-01-16T14:22:02;4.80;;;2.73;;
11539;SDS011;5826;54.756;9.192;2024-01-16T14:24:28;4.40;;;3.00;;
11539;SDS011;5826;54.756;9.192;2024-01-16T14:26:53;6.23;;;3.60;;
11539;SDS011;5826;54.756;9.192;2024-01-16T14:29:21;7.50;;;5.20;;
11539;SDS011;5826;54.756;9.192;2024-01-16T14:31:47;7.27;;;4.60;;
11539;SDS011;5826;54.756;9.192;2024-01-16T14:34:13;4.20;;;3.20;;
11539;SDS011;5826;54.756;9.192;2024-01-16T14:36:40;7.33;;;3.73;;
11539;SDS011;5826;54.756;9.192;2024-01-16T14:39:06;5.90;;;3.80;;
11539;SDS011;5826;54.756;9.192;2024-01-16T14:41:38;6.63;;;3.67;;
11539;SDS011;5826;54.756;9.192;2024-01-16T14:44:04;4.20;;;3.03;;
11539;SDS011;5826;54.756;9.192;2024-01-16T14:46:30;5.38;;;4.30;;
11539;SDS011;5826;54.756;9.192;2024-01-16T14:48:57;4.88;;;4.28;;
11539;SDS011;5826;54.756;9.192;2024-01-16T14:51:23;4.63;;;3.47;;
11539;SDS011;5826;54.756;9.192;2024-01-16T14:53:49;4.07;;;3.20;;
11539;SDS011;5826;54.756;9.192;2024-01-16T14:56:14;4.27;;;3.03;;
11539;SDS011;5826;54.756;9.192;2024-01-16T14:58:40;2.07;;;1.87;;
11539;SDS011;5826;54.756;9.192;2024-01-16T15:01:05;4.33;;;2.60;;
11539;SDS011;5826;54.756;9.192;2024-01-16T15:03:32;3.43;;;2.70;;
11539;SDS011;5826;54.756;9.192;2024-01-16T15:05:57;3.77;;;2.47;;
11539;SDS011;5826;54.756;9.192;2024-01-16T15:08:23;3.20;;;2.33;;
11539;SDS011;5826;54.756;9.192;2024-01-16T15:10:50;3.00;;;2.20;;
11539;SDS011;5826;54.756;9.192;2024-01-16T15:13:15;3.30;;;2.70;;